sensor_id;sensor_type;location;lat;lon;timestamp;P1;durP1;ratioP1;P2;durP2;ratioP2
31974;SDS011;18500;43.618;1.474;2022-08-19T00:00:23;293.27;;;274.38;;
31974;SDS011;18500;43.618;1.474;2022-08-19T00:02:49;285.02;;;267.40;;
31974;SDS011;18500;43.618;1.474;2022-08-19T00:05:15;371.13;;;346.80;;
31974;SDS011;18500;43.618;1.474;2022-08-19T00:07:42;314.98;;;294.77;;
31974;SDS011;18500;43.618;1.474;2022-08-19T00:10:09;281.08;;;261.20;;
31974;SDS011;18500;43.618;1.474;2022-08-19T00:12:36;296.40;;;277.20;;
31974;SDS011;18500;43.618;1.474;2022-08-19T00:15:04;357.13;;;332.27;;
31974;SDS011;18500;43.618;1.474;2022-08-19T00:17:31;271.10;;;252.82;;
31974;SDS011;18500;43.618;1.474;2022-08-19T00:19:57;277.40;;;257.80;;
31974;SDS011;18500;43.618;1.474;2022-08-19T00:22:22;382.48;;;355.70;;
31974;SDS011;18500;43.618;1.474;2022-08-19T00:24:48;312.38;;;290.75;;
31974;SDS011;18500;43.618;1.474;2022-08-19T00:27:14;467.38;;;432.13;;
31974;SDS011;18500;43.618;1.474;2022-08-19T00:29:40;393.40;;;366.85;;
31974;SDS011;18500;43.618;1.474;2022-08-19T00:32:06;424.00;;;395.45;;
31974;SDS011;18500;43.618;1.474;2022-08-19T00:34:31;431.30;;;402.30;;
31974;SDS011;18500;43.618;1.474;2022-08-19T00:36:58;496.45;;;463.27;;
31974;SDS011;18500;43.618;1.474;2022-08-19T00:39:24;497.95;;;463.98;;
31974;SDS011;18500;43.618;1.474;2022-08-19T00:41:50;502.90;;;468.42;;
31974;SDS011;18500;43.618;1.474;2022-08-19T00:44:18;374.75;;;350.75;;
31974;SDS011;18500;43.618;1.474;2022-08-19T00:46:47;451.25;;;419.95;;
31974;SDS011;18500;43.618;1.474;2022-08-19T00:49:15;462.27;;;430.85;;
31974;SDS011;18500;43.618;1.474;2022-08-19T00:51:52;367.75;;;342.98;;
31974;SDS011;18500;43.618;1.474;2022-08-19T00:54:22;321.37;;;300.13;;
31974;SDS011;18500;43.618;1.474;2022-08-19T00:56:48;398.58;;;371.77;;
31974;SDS011;18500;43.618;1.474;2022-08-19T00:59:16;339.00;;;316.92;;
31974;SDS011;18500;43.618;1.474;2022-08-19T01:01:43;341.92;;;319.67;;
31974;SDS011;18500;43.618;1.474;2022-08-19T01:04:10;411.88;;;383.83;;
31974;SDS011;18500;43.618;1.474;2022-08-19T01:06:37;281.80;;;263.60;;
31974;SDS011;18500;43.618;1.474;2022-08-19T01:09:04;314.20;;;293.25;;
31974;SDS011;18500;43.618;1.474;2022-08-19T01:11:34;284.25;;;266.58;;
31974;SDS011;18500;43.618;1.474;2022-08-19T01:14:04;438.20;;;407.73;;
31974;SDS011;18500;43.618;1.474;2022-08-19T01:16:30;377.60;;;352.27;;
31974;SDS011;18500;43.618;1.474;2022-08-19T01:18:58;296.80;;;278.55;;
31974;SDS011;18500;43.618;1.474;2022-08-19T01:23:49;400.60;;;375.20;;
31974;SDS011;18500;43.618;1.474;2022-08-19T01:26:17;483.15;;;448.70;;
31974;SDS011;18500;43.618;1.474;2022-08-19T01:28:46;481.65;;;447.98;;
31974;SDS011;18500;43.618;1.474;2022-08-19T01:31:19;396.33;;;369.08;;
31974;SDS011;18500;43.618;1.474;2022-08-19T01:33:48;512.03;;;475.80;;
31974;SDS011;18500;43.618;1.474;2022-08-19T01:36:22;533.08;;;495.92;;
31974;SDS011;18500;43.618;1.474;2022-08-19T01:38:50;510.38;;;475.73;;
31974;SDS011;18500;43.618;1.474;2022-08-19T01:41:17;485.55;;;453.35;;
31974;SDS011;18500;43.618;1.474;2022-08-19T01:43:43;527.83;;;493.20;;
31974;SDS011;18500;43.618;1.474;2022-08-19T01:46:09;570.17;;;532.63;;
31974;SDS011;18500;43.618;1.474;2022-08-19T01:48:39;535.00;;;498.40;;
31974;SDS011;18500;43.618;1.474;2022-08-19T01:51:07;582.43;;;543.27;;
31974;SDS011;18500;43.618;1.474;2022-08-19T01:53:35;580.97;;;541.28;;
31974;SDS011;18500;43.618;1.474;2022-08-19T01:56:02;521.47;;;486.63;;
31974;SDS011;18500;43.618;1.474;2022-08-19T01:58:31;590.72;;;551.58;;
31974;SDS011;18500;43.618;1.474;2022-08-19T02:01:02;573.33;;;535.85;;
31974;SDS011;18500;43.618;1.474;2022-08-19T02:03:28;568.00;;;530.28;;
31974;SDS011;18500;43.618;1.474;2022-08-19T02:05:56;575.97;;;537.97;;
31974;SDS011;18500;43.618;1.474;2022-08-19T02:08:25;568.70;;;531.60;;
31974;SDS011;18500;43.618;1.474;2022-08-19T02:10:55;606.40;;;566.25;;
31974;SDS011;18500;43.618;1.474;2022-08-19T02:13:21;582.28;;;543.20;;
31974;SDS011;18500;43.618;1.474;2022-08-19T02:15:47;594.22;;;554.50;;
31974;SDS011;18500;43.618;1.474;2022-08-19T02:18:13;612.13;;;571.33;;
31974;SDS011;18500;43.618;1.474;2022-08-19T02:20:40;532.47;;;498.80;;
31974;SDS011;18500;43.618;1.474;2022-08-19T02:23:07;577.92;;;540.03;;
31974;SDS011;18500;43.618;1.474;2022-08-19T02:25:34;523.22;;;490.60;;
31974;SDS011;18500;43.618;1.474;2022-08-19T02:27:59;456.75;;;429.50;;
31974;SDS011;18500;43.618;1.474;2022-08-19T02:30:25;439.67;;;412.52;;
31974;SDS011;18500;43.618;1.474;2022-08-19T02:32:51;449.13;;;421.50;;
31974;SDS011;18500;43.618;1.474;2022-08-19T02:35:18;613.58;;;569.35;;
31974;SDS011;18500;43.618;1.474;2022-08-19T02:37:44;455.60;;;427.77;;
31974;SDS011;18500;43.618;1.474;2022-08-19T02:40:29;462.80;;;434.70;;
31974;SDS011;18500;43.618;1.474;2022-08-19T02:42:59;486.30;;;454.77;;
31974;SDS011;18500;43.618;1.474;2022-08-19T02:45:26;403.50;;;378.40;;
31974;SDS011;18500;43.618;1.474;2022-08-19T02:47:51;473.00;;;442.33;;
31974;SDS011;18500;43.618;1.474;2022-08-19T02:50:17;545.53;;;507.75;;
31974;SDS011;18500;43.618;1.474;2022-08-19T02:52:43;588.10;;;547.05;;
31974;SDS011;18500;43.618;1.474;2022-08-19T02:55:09;430.10;;;402.70;;
31974;SDS011;18500;43.618;1.474;2022-08-19T02:57:35;479.67;;;446.90;;
31974;SDS011;18500;43.618;1.474;2022-08-19T03:00:03;500.77;;;467.08;;
31974;SDS011;18500;43.618;1.474;2022-08-19T03:02:38;548.72;;;510.83;;
31974;SDS011;18500;43.618;1.474;2022-08-19T03:05:05;541.75;;;504.15;;
31974;SDS011;18500;43.618;1.474;2022-08-19T03:07:32;464.25;;;434.50;;
31974;SDS011;18500;43.618;1.474;2022-08-19T03:09:57;478.23;;;447.25;;
31974;SDS011;18500;43.618;1.474;2022-08-19T03:12:23;446.55;;;417.45;;
31974;SDS011;18500;43.618;1.474;2022-08-19T03:14:49;560.70;;;521.33;;
31974;SDS011;18500;43.618;1.474;2022-08-19T03:17:16;410.55;;;383.38;;
31974;SDS011;18500;43.618;1.474;2022-08-19T03:19:41;540.72;;;505.40;;
31974;SDS011;18500;43.618;1.474;2022-08-19T03:22:08;464.60;;;433.80;;
31974;SDS011;18500;43.618;1.474;2022-08-19T03:24:34;538.42;;;500.95;;
31974;SDS011;18500;43.618;1.474;2022-08-19T03:27:00;398.80;;;372.83;;
31974;SDS011;18500;43.618;1.474;2022-08-19T03:29:26;513.20;;;478.33;;
31974;SDS011;18500;43.618;1.474;2022-08-19T03:31:53;377.45;;;353.52;;
31974;SDS011;18500;43.618;1.474;2022-08-19T03:34:21;444.25;;;415.75;;
31974;SDS011;18500;43.618;1.474;2022-08-19T03:36:51;501.52;;;467.65;;
31974;SDS011;18500;43.618;1.474;2022-08-19T03:39:19;480.17;;;448.60;;
31974;SDS011;18500;43.618;1.474;2022-08-19T03:41:46;544.90;;;507.20;;
31974;SDS011;18500;43.618;1.474;2022-08-19T03:44:14;412.25;;;385.55;;
31974;SDS011;18500;43.618;1.474;2022-08-19T03:46:42;408.20;;;380.73;;
31974;SDS011;18500;43.618;1.474;2022-08-19T03:49:08;423.55;;;396.55;;
31974;SDS011;18500;43.618;1.474;2022-08-19T03:51:35;579.67;;;540.28;;
31974;SDS011;18500;43.618;1.474;2022-08-19T03:54:04;531.10;;;495.27;;
31974;SDS011;18500;43.618;1.474;2022-08-19T03:56:35;475.80;;;445.08;;
31974;SDS011;18500;43.618;1.474;2022-08-19T03:59:04;557.45;;;518.45;;
31974;SDS011;18500;43.618;1.474;2022-08-19T04:01:31;596.05;;;555.15;;
31974;SDS011;18500;43.618;1.474;2022-08-19T04:03:57;503.10;;;468.42;;
31974;SDS011;18500;43.618;1.474;2022-08-19T04:06:25;546.40;;;509.02;;
31974;SDS011;18500;43.618;1.474;2022-08-19T04:08:52;546.38;;;508.58;;
31974;SDS011;18500;43.618;1.474;2022-08-19T04:11:21;539.45;;;502.20;;
31974;SDS011;18500;43.618;1.474;2022-08-19T04:13:49;518.25;;;481.13;;
31974;SDS011;18500;43.618;1.474;2022-08-19T04:16:17;569.78;;;529.33;;
31974;SDS011;18500;43.618;1.474;2022-08-19T04:18:44;516.45;;;481.42;;
31974;SDS011;18500;43.618;1.474;2022-08-19T04:21:15;564.25;;;524.30;;
31974;SDS011;18500;43.618;1.474;2022-08-19T04:23:46;497.40;;;463.50;;
31974;SDS011;18500;43.618;1.474;2022-08-19T04:26:15;561.97;;;522.67;;
31974;SDS011;18500;43.618;1.474;2022-08-19T04:28:46;558.28;;;519.40;;
31974;SDS011;18500;43.618;1.474;2022-08-19T04:31:15;488.92;;;457.10;;
31974;SDS011;18500;43.618;1.474;2022-08-19T04:33:46;328.95;;;308.88;;
31974;SDS011;18500;43.618;1.474;2022-08-19T04:36:15;343.63;;;321.83;;
31974;SDS011;18500;43.618;1.474;2022-08-19T04:38:49;372.75;;;349.17;;
31974;SDS011;18500;43.618;1.474;2022-08-19T04:44:02;401.98;;;375.35;;
31974;SDS011;18500;43.618;1.474;2022-08-19T04:46:28;377.98;;;353.35;;
31974;SDS011;18500;43.618;1.474;2022-08-19T04:48:56;412.40;;;385.75;;
31974;SDS011;18500;43.618;1.474;2022-08-19T04:51:22;467.05;;;435.85;;
31974;SDS011;18500;43.618;1.474;2022-08-19T04:53:48;397.17;;;371.08;;
31974;SDS011;18500;43.618;1.474;2022-08-19T04:56:15;439.38;;;410.73;;
31974;SDS011;18500;43.618;1.474;2022-08-19T04:58:43;355.25;;;332.02;;
31974;SDS011;18500;43.618;1.474;2022-08-19T05:01:22;440.75;;;411.90;;
31974;SDS011;18500;43.618;1.474;2022-08-19T05:03:50;423.00;;;395.40;;
31974;SDS011;18500;43.618;1.474;2022-08-19T05:06:17;403.00;;;376.83;;
31974;SDS011;18500;43.618;1.474;2022-08-19T05:08:45;462.80;;;432.08;;
31974;SDS011;18500;43.618;1.474;2022-08-19T05:11:14;445.85;;;416.30;;
31974;SDS011;18500;43.618;1.474;2022-08-19T05:13:40;444.20;;;415.98;;
31974;SDS011;18500;43.618;1.474;2022-08-19T05:16:07;482.33;;;450.45;;
31974;SDS011;18500;43.618;1.474;2022-08-19T05:18:34;464.38;;;434.00;;
31974;SDS011;18500;43.618;1.474;2022-08-19T05:21:19;433.77;;;405.58;;
31974;SDS011;18500;43.618;1.474;2022-08-19T05:24:04;450.55;;;420.52;;
31974;SDS011;18500;43.618;1.474;2022-08-19T05:26:34;450.45;;;420.92;;
31974;SDS011;18500;43.618;1.474;2022-08-19T05:29:01;476.13;;;444.20;;
31974;SDS011;18500;43.618;1.474;2022-08-19T05:31:28;504.88;;;470.73;;
31974;SDS011;18500;43.618;1.474;2022-08-19T05:33:54;587.33;;;547.30;;
31974;SDS011;18500;43.618;1.474;2022-08-19T05:36:20;542.05;;;505.67;;
31974;SDS011;18500;43.618;1.474;2022-08-19T05:38:46;603.15;;;561.47;;
31974;SDS011;18500;43.618;1.474;2022-08-19T05:41:13;517.53;;;482.85;;
31974;SDS011;18500;43.618;1.474;2022-08-19T05:43:40;584.47;;;543.67;;
31974;SDS011;18500;43.618;1.474;2022-08-19T05:46:06;587.90;;;547.42;;
31974;SDS011;18500;43.618;1.474;2022-08-19T05:48:33;477.00;;;445.80;;
31974;SDS011;18500;43.618;1.474;2022-08-19T05:51:04;526.88;;;491.52;;
31974;SDS011;18500;43.618;1.474;2022-08-19T05:53:34;437.33;;;408.95;;
31974;SDS011;18500;43.618;1.474;2022-08-19T05:56:06;476.50;;;445.38;;
31974;SDS011;18500;43.618;1.474;2022-08-19T05:58:34;502.42;;;468.63;;
31974;SDS011;18500;43.618;1.474;2022-08-19T06:01:01;460.05;;;429.13;;
31974;SDS011;18500;43.618;1.474;2022-08-19T06:03:30;466.17;;;434.85;;
31974;SDS011;18500;43.618;1.474;2022-08-19T06:05:58;405.05;;;378.98;;
31974;SDS011;18500;43.618;1.474;2022-08-19T06:08:24;434.73;;;406.23;;
31974;SDS011;18500;43.618;1.474;2022-08-19T06:10:51;332.90;;;311.30;;
31974;SDS011;18500;43.618;1.474;2022-08-19T06:13:17;527.88;;;488.40;;
31974;SDS011;18500;43.618;1.474;2022-08-19T06:15:44;346.52;;;323.77;;
31974;SDS011;18500;43.618;1.474;2022-08-19T06:18:11;392.80;;;366.63;;
31974;SDS011;18500;43.618;1.474;2022-08-19T06:20:37;405.90;;;377.98;;
31974;SDS011;18500;43.618;1.474;2022-08-19T06:23:03;348.80;;;325.85;;
31974;SDS011;18500;43.618;1.474;2022-08-19T06:25:29;403.17;;;377.10;;
31974;SDS011;18500;43.618;1.474;2022-08-19T06:27:55;316.33;;;295.40;;
31974;SDS011;18500;43.618;1.474;2022-08-19T06:30:21;564.38;;;522.38;;
31974;SDS011;18500;43.618;1.474;2022-08-19T06:32:46;315.83;;;294.65;;
31974;SDS011;18500;43.618;1.474;2022-08-19T06:35:12;431.23;;;401.42;;
31974;SDS011;18500;43.618;1.474;2022-08-19T06:37:39;323.02;;;301.63;;
31974;SDS011;18500;43.618;1.474;2022-08-19T06:40:05;300.17;;;280.42;;
31974;SDS011;18500;43.618;1.474;2022-08-19T06:42:33;417.00;;;387.65;;
31974;SDS011;18500;43.618;1.474;2022-08-19T06:45:00;317.25;;;296.67;;
31974;SDS011;18500;43.618;1.474;2022-08-19T06:47:28;367.85;;;343.45;;
31974;SDS011;18500;43.618;1.474;2022-08-19T06:49:56;429.15;;;400.30;;
31974;SDS011;18500;43.618;1.474;2022-08-19T06:54:54;630.90;;;582.42;;
31974;SDS011;18500;43.618;1.474;2022-08-19T06:57:21;499.75;;;466.00;;
31974;SDS011;18500;43.618;1.474;2022-08-19T06:59:47;629.53;;;584.42;;
31974;SDS011;18500;43.618;1.474;2022-08-19T07:02:12;604.10;;;562.67;;
31974;SDS011;18500;43.618;1.474;2022-08-19T07:04:38;668.58;;;618.10;;
31974;SDS011;18500;43.618;1.474;2022-08-19T07:07:05;615.00;;;571.47;;
31974;SDS011;18500;43.618;1.474;2022-08-19T07:09:35;634.55;;;588.70;;
31974;SDS011;18500;43.618;1.474;2022-08-19T07:12:03;569.50;;;529.80;;
31974;SDS011;18500;43.618;1.474;2022-08-19T07:14:31;590.60;;;550.10;;
31974;SDS011;18500;43.618;1.474;2022-08-19T07:17:00;660.03;;;611.72;;
31974;SDS011;18500;43.618;1.474;2022-08-19T07:19:26;711.47;;;658.55;;
31974;SDS011;18500;43.618;1.474;2022-08-19T07:21:54;707.28;;;654.53;;
31974;SDS011;18500;43.618;1.474;2022-08-19T07:24:21;751.47;;;695.00;;
31974;SDS011;18500;43.618;1.474;2022-08-19T07:26:49;710.22;;;656.95;;
31974;SDS011;18500;43.618;1.474;2022-08-19T07:29:16;741.75;;;685.50;;
31974;SDS011;18500;43.618;1.474;2022-08-19T07:31:43;668.50;;;619.60;;
31974;SDS011;18500;43.618;1.474;2022-08-19T07:34:10;759.78;;;701.88;;
31974;SDS011;18500;43.618;1.474;2022-08-19T07:36:39;746.10;;;688.92;;
31974;SDS011;18500;43.618;1.474;2022-08-19T07:39:08;772.13;;;712.65;;
31974;SDS011;18500;43.618;1.474;2022-08-19T07:41:35;667.13;;;618.75;;
31974;SDS011;18500;43.618;1.474;2022-08-19T07:44:02;623.17;;;578.63;;
31974;SDS011;18500;43.618;1.474;2022-08-19T07:46:31;468.50;;;437.73;;
31974;SDS011;18500;43.618;1.474;2022-08-19T07:48:58;613.28;;;568.50;;
31974;SDS011;18500;43.618;1.474;2022-08-19T07:51:25;617.90;;;573.58;;
31974;SDS011;18500;43.618;1.474;2022-08-19T07:53:51;877.45;;;802.72;;
31974;SDS011;18500;43.618;1.474;2022-08-19T07:56:18;638.17;;;592.88;;
31974;SDS011;18500;43.618;1.474;2022-08-19T07:58:45;650.08;;;603.58;;
31974;SDS011;18500;43.618;1.474;2022-08-19T08:01:15;722.97;;;668.72;;
31974;SDS011;18500;43.618;1.474;2022-08-19T08:03:43;619.38;;;573.53;;
31974;SDS011;18500;43.618;1.474;2022-08-19T08:06:27;602.20;;;559.78;;
31974;SDS011;18500;43.618;1.474;2022-08-19T08:09:12;537.15;;;501.38;;
31974;SDS011;18500;43.618;1.474;2022-08-19T08:11:52;640.47;;;593.72;;
31974;SDS011;18500;43.618;1.474;2022-08-19T08:14:35;659.20;;;611.25;;
31974;SDS011;18500;43.618;1.474;2022-08-19T08:17:04;617.58;;;572.92;;
31974;SDS011;18500;43.618;1.474;2022-08-19T08:19:31;540.70;;;502.48;;
31974;SDS011;18500;43.618;1.474;2022-08-19T08:21:58;514.55;;;479.15;;
31974;SDS011;18500;43.618;1.474;2022-08-19T08:24:25;731.58;;;677.50;;
31974;SDS011;18500;43.618;1.474;2022-08-19T08:26:53;534.22;;;498.77;;
31974;SDS011;18500;43.618;1.474;2022-08-19T08:29:19;700.40;;;647.47;;
31974;SDS011;18500;43.618;1.474;2022-08-19T08:31:44;565.13;;;525.72;;
31974;SDS011;18500;43.618;1.474;2022-08-19T08:34:11;554.67;;;514.45;;
31974;SDS011;18500;43.618;1.474;2022-08-19T08:36:39;530.97;;;494.98;;
31974;SDS011;18500;43.618;1.474;2022-08-19T08:39:09;525.25;;;490.60;;
31974;SDS011;18500;43.618;1.474;2022-08-19T08:41:49;550.72;;;514.50;;
31974;SDS011;18500;43.618;1.474;2022-08-19T08:47:15;535.05;;;500.02;;
31974;SDS011;18500;43.618;1.474;2022-08-19T08:49:51;520.83;;;488.10;;
31974;SDS011;18500;43.618;1.474;2022-08-19T08:52:37;687.03;;;640.53;;
31974;SDS011;18500;43.618;1.474;2022-08-19T08:55:18;729.60;;;677.50;;
31974;SDS011;18500;43.618;1.474;2022-08-19T08:57:51;626.60;;;584.92;;
31974;SDS011;18500;43.618;1.474;2022-08-19T09:00:27;515.38;;;482.48;;
31974;SDS011;18500;43.618;1.474;2022-08-19T09:03:02;631.55;;;589.38;;
31974;SDS011;18500;43.618;1.474;2022-08-19T09:11:19;545.58;;;510.83;;
31974;SDS011;18500;43.618;1.474;2022-08-19T09:16:58;675.55;;;630.92;;
31974;SDS011;18500;43.618;1.474;2022-08-19T09:19:24;659.28;;;615.70;;
31974;SDS011;18500;43.618;1.474;2022-08-19T09:21:50;667.72;;;623.47;;
31974;SDS011;18500;43.618;1.474;2022-08-19T09:24:16;671.13;;;627.45;;
31974;SDS011;18500;43.618;1.474;2022-08-19T09:26:42;668.72;;;624.08;;
31974;SDS011;18500;43.618;1.474;2022-08-19T09:29:08;697.45;;;647.80;;
31974;SDS011;18500;43.618;1.474;2022-08-19T09:31:34;663.55;;;620.13;;
31974;SDS011;18500;43.618;1.474;2022-08-19T09:34:00;649.00;;;606.28;;
31974;SDS011;18500;43.618;1.474;2022-08-19T09:36:29;657.80;;;614.45;;
31974;SDS011;18500;43.618;1.474;2022-08-19T09:38:58;688.42;;;642.92;;
31974;SDS011;18500;43.618;1.474;2022-08-19T09:41:25;696.05;;;650.10;;
31974;SDS011;18500;43.618;1.474;2022-08-19T09:43:52;655.70;;;613.00;;
31974;SDS011;18500;43.618;1.474;2022-08-19T09:46:20;693.35;;;646.60;;
31974;SDS011;18500;43.618;1.474;2022-08-19T09:48:48;690.70;;;644.30;;
31974;SDS011;18500;43.618;1.474;2022-08-19T09:51:16;727.20;;;676.20;;
31974;SDS011;18500;43.618;1.474;2022-08-19T09:53:44;728.58;;;677.38;;
31974;SDS011;18500;43.618;1.474;2022-08-19T09:56:11;677.70;;;631.40;;
31974;SDS011;18500;43.618;1.474;2022-08-19T09:58:38;728.25;;;677.50;;
31974;SDS011;18500;43.618;1.474;2022-08-19T10:01:04;711.53;;;660.67;;
31974;SDS011;18500;43.618;1.474;2022-08-19T10:03:32;714.53;;;665.40;;
31974;SDS011;18500;43.618;1.474;2022-08-19T10:05:59;764.25;;;709.15;;
31974;SDS011;18500;43.618;1.474;2022-08-19T10:08:28;739.63;;;684.53;;
31974;SDS011;18500;43.618;1.474;2022-08-19T10:10:56;650.78;;;599.25;;
31974;SDS011;18500;43.618;1.474;2022-08-19T10:13:23;642.90;;;593.65;;
31974;SDS011;18500;43.618;1.474;2022-08-19T10:15:52;739.97;;;684.67;;
31974;SDS011;18500;43.618;1.474;2022-08-19T10:18:21;689.00;;;638.92;;
31974;SDS011;18500;43.618;1.474;2022-08-19T10:20:48;731.72;;;676.72;;
31974;SDS011;18500;43.618;1.474;2022-08-19T10:23:16;716.38;;;661.58;;
31974;SDS011;18500;43.618;1.474;2022-08-19T10:25:42;750.15;;;689.90;;
31974;SDS011;18500;43.618;1.474;2022-08-19T10:28:08;843.25;;;768.53;;
31974;SDS011;18500;43.618;1.474;2022-08-19T10:30:37;862.80;;;791.25;;
31974;SDS011;18500;43.618;1.474;2022-08-19T10:33:04;725.28;;;670.58;;
31974;SDS011;18500;43.618;1.474;2022-08-19T10:35:30;620.40;;;576.65;;
31974;SDS011;18500;43.618;1.474;2022-08-19T10:37:56;664.92;;;617.08;;
31974;SDS011;18500;43.618;1.474;2022-08-19T10:40:26;629.85;;;586.03;;
31974;SDS011;18500;43.618;1.474;2022-08-19T10:42:53;681.65;;;630.03;;
31974;SDS011;18500;43.618;1.474;2022-08-19T10:45:20;677.92;;;626.63;;
31974;SDS011;18500;43.618;1.474;2022-08-19T10:47:48;687.50;;;636.80;;
31974;SDS011;18500;43.618;1.474;2022-08-19T10:50:14;994.70;;;897.20;;
31974;SDS011;18500;43.618;1.474;2022-08-19T10:53:02;1034.82;;;928.97;;
31974;SDS011;18500;43.618;1.474;2022-08-19T10:55:29;1003.50;;;903.47;;
31974;SDS011;18500;43.618;1.474;2022-08-19T10:58:15;812.92;;;743.63;;
31974;SDS011;18500;43.618;1.474;2022-08-19T11:00:43;903.88;;;819.35;;
31974;SDS011;18500;43.618;1.474;2022-08-19T11:03:15;1044.10;;;935.67;;
31974;SDS011;18500;43.618;1.474;2022-08-19T11:05:41;815.92;;;750.03;;
31974;SDS011;18500;43.618;1.474;2022-08-19T11:08:07;699.65;;;645.75;;
31974;SDS011;18500;43.618;1.474;2022-08-19T11:10:36;1058.22;;;942.55;;
31974;SDS011;18500;43.618;1.474;2022-08-19T11:13:05;952.70;;;864.03;;
31974;SDS011;18500;43.618;1.474;2022-08-19T11:15:31;976.58;;;878.75;;
31974;SDS011;18500;43.618;1.474;2022-08-19T11:17:58;1020.83;;;917.58;;
31974;SDS011;18500;43.618;1.474;2022-08-19T11:20:24;945.40;;;853.70;;
31974;SDS011;18500;43.618;1.474;2022-08-19T11:22:50;930.60;;;845.30;;
31974;SDS011;18500;43.618;1.474;2022-08-19T11:25:17;1101.93;;;985.55;;
31974;SDS011;18500;43.618;1.474;2022-08-19T11:27:43;1128.50;;;998.85;;
31974;SDS011;18500;43.618;1.474;2022-08-19T11:30:10;983.95;;;889.72;;
31974;SDS011;18500;43.618;1.474;2022-08-19T11:32:37;1075.93;;;958.78;;
31974;SDS011;18500;43.618;1.474;2022-08-19T11:35:03;1205.80;;;999.90;;
31974;SDS011;18500;43.618;1.474;2022-08-19T11:37:29;995.85;;;902.42;;
31974;SDS011;18500;43.618;1.474;2022-08-19T11:39:54;1057.55;;;948.72;;
31974;SDS011;18500;43.618;1.474;2022-08-19T11:42:20;1099.35;;;982.58;;
31974;SDS011;18500;43.618;1.474;2022-08-19T11:45:04;886.65;;;809.30;;
31974;SDS011;18500;43.618;1.474;2022-08-19T11:47:30;1023.35;;;918.33;;
31974;SDS011;18500;43.618;1.474;2022-08-19T11:49:56;939.42;;;854.22;;
31974;SDS011;18500;43.618;1.474;2022-08-19T11:52:22;1003.38;;;910.97;;
31974;SDS011;18500;43.618;1.474;2022-08-19T11:54:48;1088.22;;;977.42;;
31974;SDS011;18500;43.618;1.474;2022-08-19T11:57:13;1077.13;;;963.08;;
31974;SDS011;18500;43.618;1.474;2022-08-19T11:59:41;1109.03;;;988.08;;
31974;SDS011;18500;43.618;1.474;2022-08-19T12:02:12;1116.82;;;991.47;;
31974;SDS011;18500;43.618;1.474;2022-08-19T12:04:40;1113.75;;;971.97;;
31974;SDS011;18500;43.618;1.474;2022-08-19T12:07:05;1067.93;;;961.15;;
31974;SDS011;18500;43.618;1.474;2022-08-19T12:09:31;956.05;;;869.80;;
31974;SDS011;18500;43.618;1.474;2022-08-19T12:11:59;911.55;;;831.33;;
31974;SDS011;18500;43.618;1.474;2022-08-19T12:14:26;1673.68;;;999.90;;
31974;SDS011;18500;43.618;1.474;2022-08-19T12:16:54;1008.10;;;912.28;;
31974;SDS011;18500;43.618;1.474;2022-08-19T12:19:20;1098.28;;;983.85;;
31974;SDS011;18500;43.618;1.474;2022-08-19T12:21:46;1322.68;;;999.90;;
31974;SDS011;18500;43.618;1.474;2022-08-19T12:24:12;1228.13;;;991.97;;
31974;SDS011;18500;43.618;1.474;2022-08-19T12:26:38;797.67;;;735.05;;
31974;SDS011;18500;43.618;1.474;2022-08-19T12:29:04;985.88;;;892.85;;
31974;SDS011;18500;43.618;1.474;2022-08-19T12:31:30;963.97;;;878.22;;
31974;SDS011;18500;43.618;1.474;2022-08-19T12:33:55;933.45;;;853.00;;
31974;SDS011;18500;43.618;1.474;2022-08-19T12:36:22;807.03;;;745.47;;
31974;SDS011;18500;43.618;1.474;2022-08-19T12:38:48;765.40;;;707.97;;
31974;SDS011;18500;43.618;1.474;2022-08-19T12:41:14;882.63;;;806.70;;
31974;SDS011;18500;43.618;1.474;2022-08-19T12:43:43;801.08;;;739.30;;
31974;SDS011;18500;43.618;1.474;2022-08-19T12:46:09;1155.65;;;999.90;;
31974;SDS011;18500;43.618;1.474;2022-08-19T12:48:36;1303.22;;;999.90;;
31974;SDS011;18500;43.618;1.474;2022-08-19T12:51:06;1098.30;;;991.40;;
31974;SDS011;18500;43.618;1.474;2022-08-19T12:53:34;1014.15;;;928.67;;
31974;SDS011;18500;43.618;1.474;2022-08-19T12:56:00;1052.20;;;956.83;;
31974;SDS011;18500;43.618;1.474;2022-08-19T12:58:26;1072.18;;;973.45;;
31974;SDS011;18500;43.618;1.474;2022-08-19T13:00:53;1040.65;;;945.88;;
31974;SDS011;18500;43.618;1.474;2022-08-19T13:03:19;1142.22;;;999.90;;
31974;SDS011;18500;43.618;1.474;2022-08-19T13:05:47;1059.18;;;957.65;;
31974;SDS011;18500;43.618;1.474;2022-08-19T13:08:15;1071.00;;;974.72;;
31974;SDS011;18500;43.618;1.474;2022-08-19T13:10:41;1063.65;;;965.60;;
31974;SDS011;18500;43.618;1.474;2022-08-19T13:13:08;1078.43;;;979.53;;
31974;SDS011;18500;43.618;1.474;2022-08-19T13:15:35;1121.55;;;999.90;;
31974;SDS011;18500;43.618;1.474;2022-08-19T13:18:02;1092.47;;;979.92;;
31974;SDS011;18500;43.618;1.474;2022-08-19T13:20:28;1061.32;;;964.13;;
31974;SDS011;18500;43.618;1.474;2022-08-19T13:22:54;1103.20;;;998.33;;
31974;SDS011;18500;43.618;1.474;2022-08-19T13:25:22;1099.28;;;994.20;;
31974;SDS011;18500;43.618;1.474;2022-08-19T13:27:48;1100.80;;;997.65;;
31974;SDS011;18500;43.618;1.474;2022-08-19T13:30:16;1104.88;;;998.13;;
31974;SDS011;18500;43.618;1.474;2022-08-19T13:33:02;1072.40;;;972.78;;
31974;SDS011;18500;43.618;1.474;2022-08-19T13:35:37;1109.68;;;999.05;;
31974;SDS011;18500;43.618;1.474;2022-08-19T13:38:04;1049.45;;;953.53;;
31974;SDS011;18500;43.618;1.474;2022-08-19T13:40:30;1082.22;;;983.10;;
31974;SDS011;18500;43.618;1.474;2022-08-19T13:42:58;1041.80;;;949.97;;
31974;SDS011;18500;43.618;1.474;2022-08-19T13:45:25;996.10;;;912.80;;
31974;SDS011;18500;43.618;1.474;2022-08-19T13:47:54;931.83;;;854.25;;
31974;SDS011;18500;43.618;1.474;2022-08-19T13:50:22;879.15;;;808.22;;
31974;SDS011;18500;43.618;1.474;2022-08-19T13:52:50;917.55;;;842.38;;
31974;SDS011;18500;43.618;1.474;2022-08-19T13:55:16;995.25;;;909.22;;
31974;SDS011;18500;43.618;1.474;2022-08-19T13:57:42;1005.70;;;918.47;;
31974;SDS011;18500;43.618;1.474;2022-08-19T14:00:13;1036.47;;;939.45;;
31974;SDS011;18500;43.618;1.474;2022-08-19T14:02:43;1022.70;;;926.78;;
31974;SDS011;18500;43.618;1.474;2022-08-19T14:05:11;891.05;;;817.58;;
31974;SDS011;18500;43.618;1.474;2022-08-19T14:07:38;892.08;;;820.85;;
31974;SDS011;18500;43.618;1.474;2022-08-19T14:10:05;1014.78;;;925.45;;
31974;SDS011;18500;43.618;1.474;2022-08-19T14:12:33;1059.38;;;962.55;;
31974;SDS011;18500;43.618;1.474;2022-08-19T14:15:00;970.63;;;886.85;;
31974;SDS011;18500;43.618;1.474;2022-08-19T14:17:28;921.08;;;845.40;;